Time;durP1;ratioP1;P1;durP2;ratioP2;P2;SDS_P1;SDS_P2;PMS_P1;PMS_P2;Temp;Humidity;BMP_temperature;BMP_pressure;BME280_temperature;BME280_humidity;BME280_pressure;Samples;Min_cycle;Max_cycle;Signal;HPM_P1;HPM_P2
2022/10/09 00:01:27;;;;;;;10.00;4.20;;;10.10;99.90;;;;;;5058148;28;20447;-82
2022/10/09 00:03:57;;;;;;;5.40;3.67;;;10.10;99.90;;;;;;5060151;28;20436;-81
2022/10/09 00:06:28;;;;;;;9.27;4.83;;;10.00;99.90;;;;;;5062544;28;20442;-83
2022/10/09 00:08:57;;;;;;;11.70;4.57;;;10.00;99.90;;;;;;5064448;28;20535;-83
2022/10/09 00:11:28;;;;;;;8.20;4.07;;;10.00;99.90;;;;;;5065544;28;20442;-82
2022/10/09 00:13:57;;;;;;;7.27;4.03;;;10.00;99.90;;;;;;5063063;28;20552;-83
2022/10/09 00:16:25;;;;;;;9.97;4.53;;;9.90;99.90;;;;;;5063569;28;20501;-82
2022/10/09 00:18:55;;;;;;;5.10;3.63;;;9.90;99.90;;;;;;5063397;28;20450;-83
2022/10/09 00:21:26;;;;;;;9.00;4.00;;;10.00;99.90;;;;;;5062366;28;20496;-83
2022/10/09 00:23:57;;;;;;;9.97;4.47;;;9.90;99.90;;;;;;5062770;28;20465;-82
2022/10/09 00:26:25;;;;;;;9.37;4.63;;;9.90;99.90;;;;;;5064866;28;20437;-82
2022/10/09 00:28:54;;;;;;;11.63;4.57;;;10.00;99.90;;;;;;5062722;28;20450;-82
2022/10/09 00:31:23;;;;;;;6.60;4.17;;;9.80;99.90;;;;;;5062823;28;20515;-82
2022/10/09 00:33:51;;;;;;;15.90;4.83;;;10.10;99.90;;;;;;5063152;28;20450;-82
2022/10/09 00:36:21;;;;;;;10.67;4.87;;;10.20;99.90;;;;;;5063009;28;20474;-82
2022/10/09 00:38:51;;;;;;;7.73;3.93;;;9.80;99.90;;;;;;5062572;28;20450;-82
2022/10/09 00:41:22;;;;;;;10.93;4.83;;;9.70;99.90;;;;;;5064014;28;20437;-82
2022/10/09 00:43:52;;;;;;;10.03;4.30;;;9.70;99.90;;;;;;5063175;28;20442;-82
2022/10/09 00:46:26;;;;;;;9.00;4.60;;;9.70;99.90;;;;;;5062407;28;20919;-82
2022/10/09 00:48:59;;;;;;;7.33;4.27;;;9.70;99.90;;;;;;5062606;28;20433;-82
2022/10/09 00:51:29;;;;;;;6.90;3.50;;;9.60;99.90;;;;;;5062365;28;20438;-81
2022/10/09 00:53:59;;;;;;;8.57;4.53;;;9.60;99.90;;;;;;5062072;28;20454;-81
2022/10/09 00:56:28;;;;;;;6.33;4.03;;;9.60;99.90;;;;;;5062069;28;20466;-82
2022/10/09 00:58:58;;;;;;;10.67;4.33;;;9.60;99.90;;;;;;5063584;28;20441;-82
2022/10/09 01:01:27;;;;;;;8.87;5.00;;;9.50;99.90;;;;;;5062826;28;20453;-82
2022/10/09 01:03:55;;;;;;;7.73;4.00;;;9.50;99.90;;;;;;5062363;28;20442;-82
2022/10/09 01:06:31;;;;;;;10.20;4.10;;;9.50;99.90;;;;;;5062493;28;20445;-82
2022/10/09 01:09:09;;;;;;;9.13;4.43;;;9.50;99.90;;;;;;5062324;28;20434;-82
2022/10/09 01:11:45;;;;;;;6.70;4.57;;;9.50;99.90;;;;;;5062299;28;20807;-82
2022/10/09 01:14:22;;;;;;;11.90;5.40;;;9.40;99.90;;;;;;5061200;28;20477;-82
2022/10/09 01:16:57;;;;;;;8.10;4.40;;;9.40;99.90;;;;;;5064124;28;20516;-81
2022/10/09 01:19:55;;;;;;;8.00;4.50;;;9.30;99.90;;;;;;5061802;28;20438;-82
2022/10/09 01:22:35;;;;;;;7.67;4.80;;;9.40;99.90;;;;;;5055056;28;20456;-81
2022/10/09 01:25:09;;;;;;;7.10;4.20;;;9.30;99.90;;;;;;5062120;28;20458;-82
2022/10/09 01:27:40;;;;;;;8.27;5.00;;;9.30;99.90;;;;;;5061140;28;20443;-82
2022/10/09 01:30:12;;;;;;;9.60;5.10;;;9.30;99.90;;;;;;5063067;28;20426;-80
2022/10/09 01:32:44;;;;;;;8.57;5.50;;;9.30;99.90;;;;;;5067354;28;20549;-83
2022/10/09 01:35:14;;;;;;;8.13;4.90;;;9.30;99.90;;;;;;5063104;28;20465;-83
2022/10/09 01:37:44;;;;;;;7.47;5.30;;;9.10;99.90;;;;;;5063735;28;20539;-82
2022/10/09 01:40:16;;;;;;;6.60;4.83;;;9.20;99.90;;;;;;5063813;28;20811;-83
2022/10/09 01:42:46;;;;;;;7.77;5.03;;;9.20;99.90;;;;;;5062789;28;21042;-81
2022/10/09 01:45:15;;;;;;;11.47;5.00;;;9.20;99.90;;;;;;5063255;28;20456;-82
2022/10/09 01:47:44;;;;;;;9.13;4.70;;;9.20;99.90;;;;;;5064371;28;20442;-82
2022/10/09 01:50:20;;;;;;;6.20;5.00;;;9.10;99.90;;;;;;5063518;28;20446;-82
2022/10/09 01:52:51;;;;;;;6.10;4.20;;;9.10;99.90;;;;;;5062231;28;20460;-82
2022/10/09 01:55:29;;;;;;;9.73;4.90;;;9.10;99.90;;;;;;5061980;28;20473;-82
2022/10/09 01:58:05;;;;;;;7.43;4.17;;;9.10;99.90;;;;;;5061675;28;20489;-82
2022/10/09 02:00:36;;;;;;;7.23;4.83;;;9.20;99.90;;;;;;5062389;28;20442;-81
2022/10/09 02:03:09;;;;;;;6.80;4.67;;;9.00;99.90;;;;;;5061459;28;20442;-82
2022/10/09 02:05:40;;;;;;;9.20;5.17;;;9.00;99.90;;;;;;5064027;28;20453;-82
2022/10/09 02:08:10;;;;;;;7.27;5.40;;;9.00;99.90;;;;;;5063145;28;20430;-81
2022/10/09 02:10:40;;;;;;;9.50;5.70;;;9.00;99.90;;;;;;5063242;28;20438;-81
2022/10/09 02:13:09;;;;;;;9.20;4.80;;;9.00;99.90;;;;;;5061322;28;20469;-82
2022/10/09 02:15:43;;;;;;;7.47;5.30;;;8.90;99.90;;;;;;5063213;28;20534;-81
2022/10/09 02:18:14;;;;;;;7.17;5.20;;;9.00;99.90;;;;;;5064014;28;20507;-82
2022/10/09 02:20:48;;;;;;;8.97;5.37;;;8.90;99.90;;;;;;5061383;28;20453;-81
2022/10/09 02:23:18;;;;;;;9.87;5.40;;;8.90;99.90;;;;;;5061224;28;20450;-81
2022/10/09 02:25:46;;;;;;;8.43;5.87;;;8.90;99.90;;;;;;5061220;28;20470;-81
2022/10/09 02:28:18;;;;;;;8.70;5.43;;;8.90;99.90;;;;;;5061037;28;20540;-81
2022/10/09 02:30:53;;;;;;;9.43;6.23;;;8.90;99.90;;;;;;5061176;28;20469;-81
2022/10/09 02:33:27;;;;;;;8.80;5.30;;;8.80;99.90;;;;;;5061309;28;20476;-82
2022/10/09 02:35:55;;;;;;;8.87;5.03;;;8.80;99.90;;;;;;5061611;28;20474;-81
2022/10/09 02:38:23;;;;;;;9.17;5.57;;;8.80;99.90;;;;;;5060717;28;20466;-82
2022/10/09 02:40:51;;;;;;;8.23;5.23;;;8.80;99.90;;;;;;5064089;28;20469;-81
2022/10/09 02:43:21;;;;;;;10.00;5.87;;;8.70;99.90;;;;;;5065905;28;20453;-82
2022/10/09 02:45:49;;;;;;;11.87;6.63;;;8.70;99.90;;;;;;5066306;28;20553;-81
2022/10/09 02:48:17;;;;;;;10.00;5.73;;;8.70;99.90;;;;;;5063249;28;20457;-81
2022/10/09 02:50:45;;;;;;;8.80;6.40;;;8.70;99.90;;;;;;5064148;28;20454;-81
2022/10/09 02:53:13;;;;;;;9.50;6.83;;;9.20;99.90;;;;;;5064700;28;20466;-82
2022/10/09 02:55:42;;;;;;;10.23;6.40;;;8.60;99.90;;;;;;5063363;28;20461;-81
2022/10/09 02:58:10;;;;;;;8.27;6.03;;;8.60;99.90;;;;;;5063228;28;20473;-82
2022/10/09 03:00:39;;;;;;;8.70;6.43;;;8.60;99.90;;;;;;5064301;28;20821;-82
2022/10/09 03:03:08;;;;;;;11.10;6.60;;;9.50;99.90;;;;;;5064454;28;20457;-81
2022/10/09 03:05:36;;;;;;;8.87;6.07;;;8.60;99.90;;;;;;5066515;28;20836;-81
2022/10/09 03:08:04;;;;;;;8.30;5.50;;;8.60;99.90;;;;;;5065567;28;20514;-81
2022/10/09 03:10:32;;;;;;;7.70;6.33;;;8.60;99.90;;;;;;5065614;28;20818;-81
2022/10/09 03:13:00;;;;;;;9.53;6.00;;;8.60;99.90;;;;;;5064362;28;20465;-81
2022/10/09 03:15:28;;;;;;;10.20;6.50;;;8.60;99.90;;;;;;5064164;28;20461;-81
2022/10/09 03:17:58;;;;;;;8.20;6.27;;;8.50;99.90;;;;;;5067062;28;20473;-81
2022/10/09 03:20:26;;;;;;;9.83;7.23;;;8.50;99.90;;;;;;5068096;28;20438;-81
2022/10/09 03:22:55;;;;;;;9.80;6.47;;;8.40;99.90;;;;;;5071279;28;20449;-81
2022/10/09 03:25:25;;;;;;;9.67;7.00;;;8.50;99.90;;;;;;5071036;28;20534;-81
2022/10/09 03:27:53;;;;;;;8.33;6.83;;;8.50;99.90;;;;;;5071269;28;20814;-81
2022/10/09 03:30:21;;;;;;;16.30;9.20;;;8.40;99.90;;;;;;5072121;28;20438;-81
2022/10/09 03:32:49;;;;;;;12.67;8.17;;;8.50;99.90;;;;;;5073341;28;20506;-82
2022/10/09 03:35:19;;;;;;;11.23;8.70;;;8.40;99.90;;;;;;5073669;28;20493;-82
2022/10/09 03:37:47;;;;;;;10.53;7.70;;;8.40;99.90;;;;;;5071700;28;20470;-82
2022/10/09 03:40:15;;;;;;;9.97;7.40;;;8.40;99.90;;;;;;5074332;28;20462;-82
2022/10/09 03:42:44;;;;;;;8.80;7.37;;;8.40;99.90;;;;;;5069144;28;20448;-82
2022/10/09 03:45:12;;;;;;;10.37;8.10;;;8.40;99.90;;;;;;5066190;28;20473;-82
2022/10/09 03:47:40;;;;;;;13.20;7.97;;;8.30;99.90;;;;;;5065244;28;20451;-82
2022/10/09 03:50:09;;;;;;;9.53;7.67;;;8.30;99.90;;;;;;5068725;28;20456;-82
2022/10/09 03:52:39;;;;;;;9.40;7.57;;;8.30;99.90;;;;;;5067630;28;20476;-82
2022/10/09 03:55:08;;;;;;;7.77;6.70;;;8.30;99.90;;;;;;5067451;28;20553;-82
2022/10/09 03:57:36;;;;;;;10.07;7.33;;;8.30;99.90;;;;;;5066711;28;20441;-82
2022/10/09 04:00:06;;;;;;;10.07;6.97;;;8.20;99.90;;;;;;5070431;28;20463;-82
2022/10/09 04:02:34;;;;;;;8.70;7.57;;;8.20;99.90;;;;;;5070067;28;20430;-81
2022/10/09 04:05:02;;;;;;;8.80;6.90;;;8.30;99.90;;;;;;5076605;28;20494;-82
2022/10/09 04:07:31;;;;;;;8.10;7.20;;;8.20;99.90;;;;;;5078913;28;20475;-82
2022/10/09 04:10:00;;;;;;;10.80;7.40;;;8.20;99.90;;;;;;5073483;28;20450;-82
2022/10/09 04:12:28;;;;;;;8.00;6.53;;;8.10;99.90;;;;;;5070450;28;20548;-81
2022/10/09 04:14:56;;;;;;;7.90;7.10;;;8.50;99.90;;;;;;5078273;28;20460;-82
2022/10/09 04:17:24;;;;;;;8.60;7.43;;;8.10;99.90;;;;;;5077174;28;20461;-81
2022/10/09 04:19:53;;;;;;;9.90;8.40;;;8.20;99.90;;;;;;5076043;28;20496;-82
2022/10/09 04:22:21;;;;;;;10.90;7.80;;;8.10;99.90;;;;;;5076141;28;20453;-82
2022/10/09 04:24:49;;;;;;;8.87;8.00;;;8.10;99.90;;;;;;5075673;28;20478;-81
2022/10/09 04:27:19;;;;;;;10.43;8.30;;;8.00;99.90;;;;;;5077450;28;20432;-81
2022/10/09 04:29:47;;;;;;;10.60;8.20;;;8.00;99.90;;;;;;5076903;28;20502;-81
2022/10/09 04:32:15;;;;;;;10.47;8.10;;;8.30;99.90;;;;;;5078377;28;20469;-81
2022/10/09 04:34:43;;;;;;;11.70;8.20;;;8.20;99.90;;;;;;5077148;28;20464;-82
2022/10/09 04:37:11;;;;;;;9.33;8.43;;;8.80;99.90;;;;;;5076066;28;20430;-82
2022/10/09 04:39:39;;;;;;;12.63;8.90;;;7.90;99.90;;;;;;5075382;28;20473;-81
2022/10/09 04:42:08;;;;;;;12.70;9.23;;;7.90;99.90;;;;;;5076005;28;20446;-82
2022/10/09 04:44:37;;;;;;;10.73;9.63;;;7.90;99.90;;;;;;5077543;28;20475;-82
2022/10/09 04:47:05;;;;;;;11.90;9.10;;;7.60;99.90;;;;;;5077390;28;20444;-81
2022/10/09 04:49:38;;;;;;;9.90;8.70;;;7.80;99.90;;;;;;5076098;28;20446;-81
2022/10/09 04:52:06;;;;;;;11.83;9.70;;;7.90;99.90;;;;;;5077211;28;20456;-81
2022/10/09 04:54:34;;;;;;;11.63;10.13;;;7.80;99.90;;;;;;5079854;28;20468;-81
2022/10/09 04:57:02;;;;;;;10.33;8.50;;;7.80;99.90;;;;;;5079644;28;20446;-81
2022/10/09 04:59:31;;;;;;;14.17;9.30;;;8.00;99.90;;;;;;5074938;28;20466;-81
2022/10/09 05:02:00;;;;;;;11.30;9.03;;;7.80;99.90;;;;;;5076973;28;20438;-82
2022/10/09 05:04:28;;;;;;;11.70;9.57;;;7.80;99.90;;;;;;5077296;28;20476;-81
2022/10/09 05:06:57;;;;;;;14.13;9.33;;;7.80;99.90;;;;;;5077807;28;20434;-81
2022/10/09 05:09:25;;;;;;;10.20;9.20;;;8.10;99.90;;;;;;5077480;28;20525;-81
2022/10/09 05:11:53;;;;;;;12.47;9.80;;;7.80;99.90;;;;;;5064783;28;20450;-81
2022/10/09 05:14:21;;;;;;;14.27;11.10;;;7.80;99.90;;;;;;5060934;28;20478;-81
2022/10/09 05:16:51;;;;;;;10.93;9.83;;;7.80;99.90;;;;;;5060860;28;20460;-80
2022/10/09 05:19:41;;;;;;;11.50;10.00;;;7.70;99.90;;;;;;5063007;28;20457;-82
2022/10/09 05:22:09;;;;;;;14.03;11.37;;;7.80;99.90;;;;;;5077757;28;20442;-83
2022/10/09 05:24:37;;;;;;;11.43;10.23;;;7.70;99.90;;;;;;5069049;28;20445;-82
2022/10/09 05:27:05;;;;;;;11.83;10.60;;;7.70;99.90;;;;;;5066688;28;20476;-82
2022/10/09 05:29:33;;;;;;;15.80;10.93;;;7.70;99.90;;;;;;5066557;28;20541;-82
2022/10/09 05:32:01;;;;;;;10.57;9.50;;;7.70;99.90;;;;;;5066580;28;20454;-82
2022/10/09 05:34:29;;;;;;;12.10;10.80;;;7.70;99.90;;;;;;5066170;28;20543;-82
2022/10/09 05:36:58;;;;;;;13.37;10.77;;;7.70;99.90;;;;;;5066673;28;20500;-82
2022/10/09 05:39:27;;;;;;;12.33;11.17;;;7.70;99.90;;;;;;5065573;28;20535;-82
2022/10/09 05:41:55;;;;;;;12.80;9.80;;;7.60;99.90;;;;;;5065281;28;20457;-82
2022/10/09 05:44:23;;;;;;;12.43;10.83;;;7.60;99.90;;;;;;5065848;28;20473;-82
2022/10/09 05:46:51;;;;;;;10.40;9.40;;;7.60;99.90;;;;;;5065009;28;20532;-82
2022/10/09 05:49:19;;;;;;;11.93;10.83;;;7.60;99.90;;;;;;5065289;28;20856;-81
2022/10/09 05:51:48;;;;;;;11.30;10.13;;;7.60;99.90;;;;;;5065387;28;20434;-82
2022/10/09 05:54:18;;;;;;;13.20;12.00;;;8.00;99.90;;;;;;5063531;28;20470;-81
2022/10/09 05:56:46;;;;;;;13.30;12.00;;;7.60;99.90;;;;;;5064834;28;20485;-82
2022/10/09 05:59:18;;;;;;;15.13;13.43;;;8.00;99.90;;;;;;5063794;28;20481;-81
2022/10/09 06:01:49;;;;;;;12.00;10.67;;;7.60;99.90;;;;;;5063711;28;20438;-81
2022/10/09 06:04:19;;;;;;;14.53;9.60;;;7.60;99.90;;;;;;5063950;28;20474;-79
2022/10/09 06:06:48;;;;;;;12.00;10.30;;;7.60;99.90;;;;;;5064046;28;20437;-81
2022/10/09 06:09:20;;;;;;;12.87;11.47;;;7.60;99.90;;;;;;5062377;28;20540;-80
2022/10/09 06:11:50;;;;;;;12.67;10.60;;;7.60;99.90;;;;;;5062504;28;20435;-81
2022/10/09 06:14:20;;;;;;;13.33;11.37;;;8.20;99.90;;;;;;5062862;28;20478;-81
2022/10/09 06:16:49;;;;;;;13.83;11.27;;;8.10;99.90;;;;;;5064227;28;20433;-81
2022/10/09 06:19:19;;;;;;;12.30;10.97;;;7.60;99.90;;;;;;5063042;28;20474;-81
2022/10/09 06:21:48;;;;;;;13.80;10.60;;;7.60;99.90;;;;;;5063118;28;20433;-81
2022/10/09 06:24:26;;;;;;;13.43;12.10;;;7.60;99.90;;;;;;5062840;28;20901;-82
2022/10/09 06:26:56;;;;;;;16.50;13.43;;;7.60;99.90;;;;;;5064027;28;20433;-81
2022/10/09 06:29:25;;;;;;;13.10;11.53;;;7.60;99.90;;;;;;5060645;28;20525;-80
2022/10/09 06:31:53;;;;;;;14.90;12.20;;;7.60;99.90;;;;;;5057311;28;20448;-80
2022/10/09 06:34:21;;;;;;;13.80;12.40;;;7.60;99.90;;;;;;5059436;28;20469;-80
2022/10/09 06:36:49;;;;;;;16.23;12.40;;;7.60;99.90;;;;;;5058098;28;20476;-80
2022/10/09 06:39:18;;;;;;;13.87;12.57;;;7.70;99.90;;;;;;5058808;28;20473;-80
2022/10/09 06:41:47;;;;;;;12.47;11.10;;;7.70;99.90;;;;;;5058623;28;20796;-81
2022/10/09 06:44:40;;;;;;;14.10;11.43;;;7.70;99.90;;;;;;5062443;28;20462;-81
2022/10/09 06:47:08;;;;;;;14.87;13.30;;;7.70;99.90;;;;;;5059017;28;20505;-81
2022/10/09 06:49:36;;;;;;;17.53;15.73;;;7.70;99.90;;;;;;5059169;28;20466;-81
2022/10/09 06:52:05;;;;;;;15.63;12.47;;;7.80;99.90;;;;;;5059085;28;20457;-82
2022/10/09 06:54:33;;;;;;;14.47;11.57;;;7.80;99.90;;;;;;5059816;28;20500;-82
2022/10/09 06:57:02;;;;;;;13.10;11.63;;;7.80;99.90;;;;;;5059831;28;20438;-82
2022/10/09 06:59:30;;;;;;;15.90;12.33;;;7.80;99.90;;;;;;5059161;28;20490;-80
2022/10/09 07:01:59;;;;;;;12.97;11.60;;;7.80;99.90;;;;;;5060546;28;20445;-82
2022/10/09 07:04:27;;;;;;;14.67;13.27;;;7.90;99.90;;;;;;5058678;28;20485;-81
2022/10/09 07:06:55;;;;;;;13.70;12.00;;;7.90;99.90;;;;;;5060114;28;20450;-80
2022/10/09 07:09:23;;;;;;;14.20;12.03;;;7.90;99.90;;;;;;5059436;28;20441;-81
2022/10/09 07:11:51;;;;;;;16.57;13.67;;;8.00;99.90;;;;;;5059883;28;20453;-81
2022/10/09 07:14:21;;;;;;;14.23;11.90;;;8.00;99.90;;;;;;5061247;28;20493;-82
2022/10/09 07:16:51;;;;;;;15.20;12.90;;;8.10;99.90;;;;;;5060344;28;20509;-81
2022/10/09 07:19:20;;;;;;;14.77;12.60;;;8.10;99.90;;;;;;5059577;28;20580;-81
2022/10/09 07:21:49;;;;;;;13.53;12.07;;;8.10;99.90;;;;;;5059934;28;20441;-81
2022/10/09 07:24:19;;;;;;;15.00;12.57;;;8.10;99.90;;;;;;5059981;28;20474;-82
2022/10/09 07:26:48;;;;;;;16.90;13.83;;;8.10;99.90;;;;;;5060325;28;20430;-81
2022/10/09 07:29:18;;;;;;;13.57;12.27;;;8.20;99.90;;;;;;5060535;28;20450;-81
2022/10/09 07:31:48;;;;;;;14.03;12.00;;;8.10;99.90;;;;;;5059711;28;20449;-81
2022/10/09 07:34:17;;;;;;;14.93;13.37;;;8.30;99.90;;;;;;5060099;28;20462;-81
2022/10/09 07:36:45;;;;;;;19.27;14.97;;;8.20;99.90;;;;;;5059653;28;20430;-80
2022/10/09 07:39:13;;;;;;;14.67;13.37;;;8.30;99.90;;;;;;5058668;28;20464;-81
2022/10/09 07:41:42;;;;;;;13.13;11.93;;;8.30;99.90;;;;;;5060017;28;20458;-81
2022/10/09 07:44:10;;;;;;;15.13;13.60;;;8.40;99.90;;;;;;5059349;28;20820;-81
2022/10/09 07:46:39;;;;;;;14.40;12.90;;;8.40;99.90;;;;;;5059403;28;20434;-81
2022/10/09 07:49:09;;;;;;;13.73;12.27;;;8.50;99.90;;;;;;5057363;28;20450;-81
2022/10/09 07:51:37;;;;;;;15.80;13.50;;;8.60;99.90;;;;;;5058459;28;20438;-80
2022/10/09 07:54:06;;;;;;;15.13;13.53;;;8.60;99.90;;;;;;5057997;28;20959;-80
2022/10/09 07:56:36;;;;;;;17.20;12.60;;;8.70;99.90;;;;;;5059779;28;20473;-80
2022/10/09 07:59:07;;;;;;;14.77;13.27;;;8.90;99.90;;;;;;5057562;28;20442;-80
2022/10/09 08:01:36;;;;;;;15.90;13.10;;;9.00;99.90;;;;;;5057489;28;20486;-80
2022/10/09 08:04:05;;;;;;;14.20;12.70;;;9.10;99.90;;;;;;5058803;28;20449;-81
2022/10/09 08:06:35;;;;;;;14.43;12.10;;;9.20;99.90;;;;;;5058270;28;20812;-80
2022/10/09 08:09:05;;;;;;;13.93;11.97;;;9.40;99.90;;;;;;5057324;28;20477;-81
2022/10/09 08:11:34;;;;;;;17.90;11.90;;;9.50;99.90;;;;;;5057781;28;20440;-81
2022/10/09 08:14:02;;;;;;;13.03;10.93;;;9.60;99.90;;;;;;5057200;28;20504;-80
2022/10/09 08:16:33;;;;;;;16.10;11.00;;;9.70;99.90;;;;;;5058386;28;20454;-81
2022/10/09 08:19:02;;;;;;;14.23;10.57;;;9.80;99.90;;;;;;5059578;28;20434;-79
2022/10/09 08:21:31;;;;;;;11.63;10.60;;;10.00;99.90;;;;;;5057529;28;20470;-80
2022/10/09 08:24:01;;;;;;;16.40;12.20;;;10.10;99.90;;;;;;5053868;28;20445;-77
2022/10/09 08:26:31;;;;;;;12.60;10.90;;;10.20;99.90;;;;;;5057389;28;20512;-80
2022/10/09 08:29:01;;;;;;;18.47;11.40;;;10.30;99.90;;;;;;5060097;28;20541;-79
2022/10/09 08:31:30;;;;;;;13.93;10.60;;;10.40;99.90;;;;;;5061082;28;20457;-79
2022/10/09 08:34:00;;;;;;;12.93;10.33;;;10.50;99.90;;;;;;5059686;28;20521;-80
2022/10/09 08:36:29;;;;;;;14.10;9.73;;;10.60;99.90;;;;;;5063628;28;20861;-80
2022/10/09 08:38:58;;;;;;;14.20;10.60;;;10.70;99.90;;;;;;5064031;28;20461;-80
2022/10/09 08:41:41;;;;;;;10.87;9.63;;;10.80;99.90;;;;;;5064377;28;20493;-79
2022/10/09 08:44:17;;;;;;;10.80;9.33;;;10.90;99.90;;;;;;5065704;28;20513;-80
2022/10/09 08:46:56;;;;;;;14.07;8.73;;;11.00;99.90;;;;;;5064409;28;20438;-80
2022/10/09 08:49:29;;;;;;;11.43;8.23;;;11.00;99.90;;;;;;5064000;28;20450;-80
2022/10/09 08:52:05;;;;;;;12.50;8.80;;;11.10;99.90;;;;;;5062326;28;20445;-80
2022/10/09 08:54:35;;;;;;;15.30;9.27;;;11.20;99.90;;;;;;5064593;28;20866;-80
2022/10/09 08:57:12;;;;;;;11.30;9.30;;;11.30;99.90;;;;;;5064226;28;20450;-80
2022/10/09 08:59:40;;;;;;;12.33;9.67;;;11.30;99.90;;;;;;5063306;28;20477;-80
2022/10/09 09:02:27;;;;;;;13.70;8.30;;;11.40;99.90;;;;;;5062923;28;20568;-80
2022/10/09 09:05:04;;;;;;;9.97;7.67;;;11.50;99.90;;;;;;5061466;28;20505;-79
2022/10/09 09:07:41;;;;;;;12.13;8.53;;;11.50;99.90;;;;;;5062894;28;20441;-80
2022/10/09 09:10:19;;;;;;;9.43;7.70;;;11.60;99.90;;;;;;5061490;28;20442;-81
2022/10/09 09:12:55;;;;;;;11.67;8.00;;;11.70;99.90;;;;;;5066286;28;20545;-82
2022/10/09 09:15:38;;;;;;;13.30;8.73;;;11.70;99.90;;;;;;5064456;28;20480;-81
2022/10/09 09:18:21;;;;;;;11.43;7.33;;;11.80;99.90;;;;;;5066664;28;20488;-82
2022/10/09 09:20:53;;;;;;;13.47;8.00;;;11.90;99.90;;;;;;5065114;28;20873;-80
2022/10/09 09:23:26;;;;;;;9.17;7.00;;;12.00;99.90;;;;;;5063316;28;20446;-80
2022/10/09 09:25:55;;;;;;;12.00;6.80;;;12.00;99.90;;;;;;5061838;28;20473;-81
2022/10/09 09:28:27;;;;;;;8.43;6.53;;;12.10;99.90;;;;;;5061667;28;20449;-82
2022/10/09 09:30:58;;;;;;;10.20;6.30;;;12.20;99.90;;;;;;5059391;28;20896;-79
2022/10/09 09:33:35;;;;;;;10.73;6.70;;;12.20;99.90;;;;;;5060781;28;20457;-76
2022/10/09 09:36:17;;;;;;;8.37;6.47;;;12.30;99.90;;;;;;5056557;28;20458;-77
2022/10/09 09:38:46;;;;;;;11.90;7.67;;;12.40;99.90;;;;;;5056206;28;20422;-75
2022/10/09 09:41:34;;;;;;;8.00;5.47;;;12.50;99.90;;;;;;5056042;28;20450;-78
2022/10/09 09:44:05;;;;;;;10.00;5.43;;;12.60;99.90;;;;;;5058343;28;20430;-79
2022/10/09 09:46:33;;;;;;;10.90;5.70;;;12.60;99.90;;;;;;5056352;28;20434;-76
2022/10/09 09:49:02;;;;;;;7.83;6.23;;;12.70;99.90;;;;;;5057391;28;20449;-77
2022/10/09 09:51:36;;;;;;;10.23;5.50;;;12.80;99.90;;;;;;5057250;28;20453;-74
2022/10/09 09:54:07;;;;;;;8.63;5.50;;;12.90;99.90;;;;;;5057923;28;20434;-75
2022/10/09 09:56:38;;;;;;;13.87;5.63;;;13.00;99.90;;;;;;5055852;28;20434;-77
2022/10/09 09:59:32;;;;;;;8.37;4.43;;;13.10;99.90;;;;;;5057173;28;20509;-80
2022/10/09 10:02:02;;;;;;;11.77;7.53;;;13.10;99.90;;;;;;5056502;28;20978;-77
2022/10/09 10:04:30;;;;;;;6.60;3.67;;;13.20;99.90;;;;;;5058195;28;20462;-82
2022/10/09 10:06:59;;;;;;;5.83;3.77;;;13.30;99.90;;;;;;5057579;28;20500;-78
2022/10/09 10:09:27;;;;;;;12.20;3.87;;;13.30;99.90;;;;;;5055796;28;20439;-77
2022/10/09 10:11:58;;;;;;;6.43;3.50;;;13.40;99.90;;;;;;5053800;28;20454;-76
2022/10/09 10:14:27;;;;;;;8.57;3.90;;;13.40;99.90;;;;;;5055110;28;20999;-78
2022/10/09 10:16:59;;;;;;;8.57;3.50;;;13.50;99.90;;;;;;5059272;28;20477;-79
2022/10/09 10:19:29;;;;;;;10.40;4.03;;;13.50;99.90;;;;;;5059389;28;20434;-78
2022/10/09 10:21:59;;;;;;;6.23;3.77;;;13.60;99.90;;;;;;5060914;28;20462;-79
2022/10/09 10:24:32;;;;;;;9.70;3.27;;;13.60;99.90;;;;;;5060129;28;20497;-82
2022/10/09 10:27:04;;;;;;;11.10;3.60;;;13.70;99.90;;;;;;5060791;28;20533;-79
2022/10/09 10:29:37;;;;;;;11.53;4.77;;;13.70;99.90;;;;;;5062397;28;20450;-79
2022/10/09 10:32:13;;;;;;;7.90;2.80;;;13.80;99.90;;;;;;5059014;28;20419;-79
2022/10/09 10:34:48;;;;;;;7.10;2.50;;;13.80;99.90;;;;;;5057678;28;20473;-80
2022/10/09 10:37:27;;;;;;;5.90;3.07;;;13.90;99.90;;;;;;5056677;28;20453;-80
2022/10/09 10:40:01;;;;;;;6.67;2.97;;;13.90;99.90;;;;;;5056764;28;20529;-80
2022/10/09 10:42:36;;;;;;;4.87;2.70;;;13.90;99.90;;;;;;5057516;28;20549;-82
2022/10/09 10:45:12;;;;;;;5.60;2.90;;;13.90;99.90;;;;;;5058056;28;20488;-80
2022/10/09 10:47:47;;;;;;;8.30;2.80;;;14.00;99.90;;;;;;5055637;28;20503;-81
2022/10/09 10:50:17;;;;;;;9.10;2.80;;;14.00;99.90;;;;;;5063421;28;20434;-79
2022/10/09 10:53:00;;;;;;;7.33;2.57;;;14.10;99.90;;;;;;5062821;28;20465;-80
2022/10/09 10:55:38;;;;;;;11.57;3.03;;;14.10;99.90;;;;;;5057692;28;20461;-79
2022/10/09 10:58:19;;;;;;;5.53;2.23;;;14.10;99.90;;;;;;5056504;28;20910;-80
2022/10/09 11:00:59;;;;;;;7.87;3.17;;;14.20;99.90;;;;;;5056112;28;20525;-80
2022/10/09 11:03:43;;;;;;;7.87;2.57;;;14.20;99.90;;;;;;5055425;28;20472;-80
2022/10/09 11:06:18;;;;;;;8.53;3.70;;;14.30;99.90;;;;;;5057687;28;20457;-80
2022/10/09 11:09:04;;;;;;;5.50;2.73;;;14.30;99.90;;;;;;5056720;28;20448;-79
2022/10/09 11:11:39;;;;;;;6.93;2.80;;;14.40;99.90;;;;;;5056756;28;20442;-78
2022/10/09 11:14:27;;;;;;;5.60;3.03;;;14.40;99.90;;;;;;5055251;28;20467;-77
2022/10/09 11:17:06;;;;;;;6.37;2.97;;;14.40;99.90;;;;;;5052380;28;20442;-77
2022/10/09 11:20:01;;;;;;;8.23;3.20;;;14.50;99.90;;;;;;5052464;28;20440;-76
2022/10/09 11:22:48;;;;;;;6.93;2.97;;;14.60;99.90;;;;;;5052156;28;20474;-76
2022/10/09 11:25:25;;;;;;;9.80;3.63;;;14.60;99.90;;;;;;5054002;28;20453;-76
2022/10/09 11:27:58;;;;;;;9.00;4.40;;;14.60;99.90;;;;;;5056724;28;20438;-78
2022/10/09 11:30:30;;;;;;;5.53;3.10;;;14.70;99.90;;;;;;5054905;28;20430;-77
2022/10/09 11:33:05;;;;;;;7.50;3.40;;;14.80;99.90;;;;;;5054495;28;20481;-77
2022/10/09 11:35:42;;;;;;;5.63;2.83;;;14.80;99.90;;;;;;5058973;28;20466;-78
2022/10/09 11:38:24;;;;;;;8.97;3.17;;;14.90;99.90;;;;;;5061190;28;20445;-78
2022/10/09 11:40:53;;;;;;;10.77;3.40;;;14.90;99.90;;;;;;5053829;28;20504;-76
2022/10/09 11:43:45;;;;;;;6.23;2.83;;;14.90;99.90;;;;;;5055064;28;20481;-78
2022/10/09 11:46:24;;;;;;;5.20;2.70;;;14.90;99.90;;;;;;5052603;28;20465;-77
2022/10/09 11:48:59;;;;;;;5.63;2.30;;;14.90;99.90;;;;;;5054099;28;20418;-76
2022/10/09 11:51:34;;;;;;;7.80;3.00;;;14.90;99.90;;;;;;5053928;28;20446;-78
2022/10/09 11:54:05;;;;;;;5.83;2.63;;;14.90;99.90;;;;;;5052890;28;20808;-78
2022/10/09 11:56:33;;;;;;;4.97;3.20;;;14.90;99.90;;;;;;5054732;28;20428;-77
2022/10/09 11:59:03;;;;;;;7.87;3.30;;;15.00;99.90;;;;;;5057113;28;20457;-78
2022/10/09 12:01:33;;;;;;;5.67;2.27;;;15.10;99.90;;;;;;5055617;28;20536;-76
2022/10/09 12:04:05;;;;;;;7.87;2.47;;;15.10;99.90;;;;;;5055431;28;20864;-77
2022/10/09 12:06:47;;;;;;;7.80;2.93;;;15.10;99.90;;;;;;5053664;28;20831;-78
2022/10/09 12:09:23;;;;;;;6.77;2.20;;;15.20;99.90;;;;;;5054893;28;20461;-76
2022/10/09 12:11:58;;;;;;;9.17;2.77;;;15.20;99.90;;;;;;5058082;28;20445;-77
2022/10/09 12:14:28;;;;;;;4.50;2.20;;;15.20;99.90;;;;;;5060868;28;20447;-78
2022/10/09 12:16:58;;;;;;;5.23;2.10;;;15.30;99.90;;;;;;5062775;28;20900;-77
2022/10/09 12:19:38;;;;;;;7.63;2.43;;;15.30;99.90;;;;;;5059226;28;20955;-78
2022/10/09 12:22:15;;;;;;;5.07;2.40;;;15.40;99.90;;;;;;5061327;28;20475;-78
2022/10/09 12:24:46;;;;;;;5.87;2.40;;;15.40;99.90;;;;;;5067148;28;20428;-80
2022/10/09 12:27:20;;;;;;;10.07;2.27;;;15.40;99.90;;;;;;5064953;28;20409;-77
2022/10/09 12:29:56;;;;;;;5.20;2.03;;;15.50;99.90;;;;;;5065178;28;20407;-78
2022/10/09 12:32:40;;;;;;;7.33;2.40;;;15.60;99.90;;;;;;5064705;28;20901;-77
2022/10/09 12:35:18;;;;;;;4.10;2.10;;;15.60;99.90;;;;;;5061713;28;20506;-79
2022/10/09 12:37:48;;;;;;;8.43;2.77;;;15.60;99.90;;;;;;5065773;28;20898;-79
2022/10/09 12:40:21;;;;;;;6.03;2.87;;;15.70;99.90;;;;;;5069522;28;20420;-78
2022/10/09 12:42:52;;;;;;;9.97;2.80;;;15.70;99.90;;;;;;5058728;28;20938;-77
2022/10/09 12:45:24;;;;;;;6.00;2.60;;;15.70;99.90;;;;;;5065569;28;20428;-77
2022/10/09 12:47:53;;;;;;;7.60;2.43;;;15.70;99.90;;;;;;5065265;28;20421;-78
2022/10/09 12:50:26;;;;;;;7.27;2.43;;;15.80;99.90;;;;;;5066186;28;20413;-78
2022/10/09 12:52:59;;;;;;;7.03;3.03;;;15.80;99.90;;;;;;5064285;28;20947;-79
2022/10/09 12:55:29;;;;;;;6.17;2.57;;;15.80;99.90;;;;;;5064216;28;20797;-78
2022/10/09 12:58:02;;;;;;;5.77;2.70;;;15.80;99.90;;;;;;5063070;28;20761;-78
2022/10/09 13:00:31;;;;;;;4.80;2.27;;;15.80;99.90;;;;;;5067093;28;20426;-79
2022/10/09 13:03:00;;;;;;;6.23;2.10;;;15.90;99.90;;;;;;5066306;28;20520;-78
2022/10/09 13:05:36;;;;;;;5.20;2.03;;;15.90;99.90;;;;;;5065115;28;20463;-78
2022/10/09 13:08:18;;;;;;;4.43;2.07;;;15.90;99.90;;;;;;5064935;28;20458;-79